Saint Germain, Wisconsin
Current Conditions -  °F | °C
As of 2:35 AM on Saturday 20 Dec 2014 (Local Time) from KEGV Reporting Station
Overcast Overcast  
Wind Chill: -7°   Ceiling: 1500
Heat Index: -7°   Visibility: 7mi
Dew Point: -7°   Wind: 0mph
Humidity: 99%   Direction: NA
Pressure: 30.18"   Gusts: NA
Location:  45.9°N, 89.49°W
Report Text: KEGV 200835Z AUTO 00000KT 7SM SCT004 OVC015 M07/M07 A3018 RMK AO2 T10691071
Loading
Personal Weather Stations






























Interactive Weather Map New forecast layout! Learn more

10-Day Weather Forecast

Advertisements
Track Severe Weather on mobile